Time;durP1;ratioP1;P1;durP2;ratioP2;P2;SDS_P1;SDS_P2;PMS_P1;PMS_P2;Temp;Humidity;BMP_temperature;BMP_pressure;BME280_temperature;BME280_humidity;BME280_pressure;Samples;Min_cycle;Max_cycle;Signal;HPM_P1;HPM_P2
2023/06/19 00:02:13;;;;;;;7.35;4.95;;;20.90;44.80;;;;;;5063732;28;20033;-71
2023/06/19 00:04:45;;;;;;;7.43;4.88;;;20.90;45.00;;;;;;5052284;28;20109;-71
2023/06/19 00:07:19;;;;;;;6.82;4.80;;;20.90;45.60;;;;;;5060002;28;20024;-70
2023/06/19 00:10:01;;;;;;;7.03;5.13;;;20.80;45.50;;;;;;5052440;28;20107;-71
2023/06/19 00:12:43;;;;;;;7.45;5.45;;;20.80;46.00;;;;;;5033981;28;20021;-70
2023/06/19 00:15:21;;;;;;;8.25;6.00;;;20.80;46.40;;;;;;5051910;28;20017;-71
2023/06/19 00:18:00;;;;;;;14.23;5.03;;;20.70;46.10;;;;;;5034349;28;20115;-70
2023/06/19 00:20:39;;;;;;;6.50;5.25;;;20.70;46.10;;;;;;5050591;28;20472;-69
2023/06/19 00:23:11;;;;;;;7.22;5.40;;;20.70;46.70;;;;;;5048145;28;20111;-71
2023/06/19 00:25:43;;;;;;;7.25;5.57;;;20.70;46.80;;;;;;5047809;28;20021;-71
2023/06/19 00:28:14;;;;;;;8.63;6.05;;;20.60;46.80;;;;;;5031685;28;20110;-70
2023/06/19 00:30:46;;;;;;;6.07;4.90;;;20.60;47.00;;;;;;5064971;28;20479;-70
2023/06/19 00:33:22;;;;;;;7.03;4.90;;;20.60;47.00;;;;;;5066153;28;20628;-71
2023/06/19 00:36:01;;;;;;;6.53;5.13;;;20.60;46.90;;;;;;5051422;28;20033;-70
2023/06/19 00:38:39;;;;;;;7.85;6.07;;;20.50;46.90;;;;;;5049143;28;20396;-70
2023/06/19 00:41:22;;;;;;;9.35;5.38;;;20.50;47.40;;;;;;5035340;28;20029;-70
2023/06/19 00:44:04;;;;;;;9.35;5.82;;;20.50;47.70;;;;;;5051596;28;20447;-71
2023/06/19 00:46:35;;;;;;;11.60;6.00;;;20.40;48.10;;;;;;5051832;28;20063;-70
2023/06/19 00:49:14;;;;;;;9.35;5.63;;;20.40;48.40;;;;;;5064877;28;20029;-70
2023/06/19 00:51:44;;;;;;;8.85;5.75;;;20.40;47.70;;;;;;5051376;28;20024;-70
2023/06/19 00:54:29;;;;;;;7.40;5.15;;;20.40;47.70;;;;;;5051161;28;20036;-70
2023/06/19 00:56:57;;;;;;;8.48;6.07;;;20.30;47.60;;;;;;5053184;28;20112;-69
2023/06/19 01:00:26;;;;;;;7.10;5.72;;;20.30;48.50;;;;;;5049036;28;20114;-71
2023/06/19 01:03:55;;;;;;;7.40;5.55;;;20.30;48.30;;;;;;5047288;28;20477;-70
2023/06/19 01:07:23;;;;;;;9.63;5.32;;;20.30;48.20;;;;;;5050650;28;20090;-70
2023/06/19 01:09:55;;;;;;;7.63;5.60;;;20.30;48.40;;;;;;5051234;28;20548;-71
2023/06/19 01:12:38;;;;;;;8.27;6.07;;;20.20;48.00;;;;;;5046710;28;20025;-71
2023/06/19 01:15:10;;;;;;;7.43;5.90;;;20.20;49.70;;;;;;5045856;28;20021;-70
2023/06/19 01:17:39;;;;;;;8.00;5.70;;;20.10;48.70;;;;;;5047841;28;20025;-70
2023/06/19 01:20:10;;;;;;;8.02;5.63;;;20.10;49.40;;;;;;5048078;28;20083;-71
2023/06/19 01:22:36;;;;;;;7.43;5.55;;;20.10;49.40;;;;;;5049586;28;20091;-70
2023/06/19 01:25:05;;;;;;;7.07;5.65;;;20.00;49.50;;;;;;5050388;28;20056;-71
2023/06/19 01:27:36;;;;;;;7.25;5.50;;;20.00;49.50;;;;;;5051144;28;20032;-73
2023/06/19 01:30:08;;;;;;;7.30;5.65;;;20.00;49.60;;;;;;5051245;28;20388;-71
2023/06/19 01:33:06;;;;;;;10.43;6.05;;;19.90;49.50;;;;;;5050375;28;20491;-72
2023/06/19 01:35:38;;;;;;;6.97;6.10;;;19.90;49.20;;;;;;5042131;28;20036;-71
2023/06/19 01:38:07;;;;;;;6.95;5.30;;;19.90;49.40;;;;;;5053814;28;20468;-71
2023/06/19 01:40:36;;;;;;;6.15;5.00;;;19.90;49.40;;;;;;5036858;28;20082;-70
2023/06/19 01:43:06;;;;;;;7.30;5.80;;;19.80;49.30;;;;;;5053839;28;20124;-71
2023/06/19 01:45:32;;;;;;;10.52;6.38;;;19.80;49.80;;;;;;5054347;28;20029;-71
2023/06/19 01:47:58;;;;;;;10.20;6.18;;;19.80;50.30;;;;;;5054605;28;20563;-73
2023/06/19 01:50:24;;;;;;;7.40;5.85;;;19.80;50.10;;;;;;5054606;28;20491;-72
2023/06/19 01:52:55;;;;;;;8.95;6.05;;;19.70;49.70;;;;;;5034957;28;20464;-71
2023/06/19 01:55:26;;;;;;;10.23;6.10;;;19.70;50.00;;;;;;5054958;28;20025;-70
2023/06/19 01:57:54;;;;;;;8.15;6.55;;;19.70;50.10;;;;;;5054642;28;20028;-71
2023/06/19 02:00:23;;;;;;;6.72;5.47;;;19.60;50.10;;;;;;5057192;28;20384;-70
2023/06/19 02:02:49;;;;;;;8.77;5.97;;;19.60;50.00;;;;;;5074630;28;20035;-70
2023/06/19 02:05:17;;;;;;;7.20;5.57;;;19.60;49.80;;;;;;5074620;28;20368;-69
2023/06/19 02:07:46;;;;;;;9.98;6.90;;;19.60;49.80;;;;;;5074374;28;20111;-69
2023/06/19 02:10:17;;;;;;;8.20;6.45;;;19.50;51.00;;;;;;5074353;28;20103;-70
2023/06/19 02:12:47;;;;;;;10.88;5.90;;;19.50;50.70;;;;;;5074284;28;20078;-70
2023/06/19 02:15:13;;;;;;;11.80;6.40;;;19.50;50.70;;;;;;5074353;28;20630;-69
2023/06/19 02:17:54;;;;;;;7.82;6.18;;;19.50;51.20;;;;;;5074350;28;20042;-69
2023/06/19 02:20:26;;;;;;;10.25;6.20;;;19.50;50.80;;;;;;5074279;28;20034;-72
2023/06/19 02:22:56;;;;;;;8.38;6.28;;;19.50;51.00;;;;;;5070398;28;20040;-70
2023/06/19 02:25:29;;;;;;;9.10;6.40;;;19.40;51.10;;;;;;5053882;28;20092;-69
2023/06/19 02:27:57;;;;;;;9.15;5.90;;;19.40;51.20;;;;;;5052507;28;20052;-70
2023/06/19 02:30:29;;;;;;;12.13;6.47;;;19.40;51.00;;;;;;5054075;28;20503;-69
2023/06/19 02:33:02;;;;;;;12.73;6.80;;;19.40;51.90;;;;;;5036157;28;20365;-68
2023/06/19 02:35:33;;;;;;;;;;;19.40;51.50;;;;;;5054388;28;20032;-69
2023/06/19 02:38:07;;;;;;;9.65;6.60;;;19.40;50.50;;;;;;5054099;28;20275;-69
2023/06/19 02:40:41;;;;;;;8.13;6.15;;;19.40;51.90;;;;;;5036054;28;20473;-71
2023/06/19 02:43:10;;;;;;;8.02;5.70;;;19.30;51.40;;;;;;5054106;28;20045;-70
2023/06/19 02:45:40;;;;;;;7.88;5.88;;;19.30;51.30;;;;;;5053568;28;20381;-69
2023/06/19 02:48:11;;;;;;;10.25;6.18;;;19.30;51.50;;;;;;5053603;28;20025;-69
2023/06/19 02:50:45;;;;;;;6.88;5.35;;;19.30;51.60;;;;;;5053694;28;20063;-70
2023/06/19 02:53:16;;;;;;;8.20;6.05;;;19.20;51.60;;;;;;5035055;28;20029;-71
2023/06/19 02:55:46;;;;;;;8.60;6.30;;;19.20;51.60;;;;;;5052352;28;20442;-70
2023/06/19 02:58:18;;;;;;;8.63;5.65;;;19.20;51.60;;;;;;5053789;28;20025;-70
2023/06/19 03:00:44;;;;;;;9.35;6.93;;;19.20;51.60;;;;;;5053322;28;20029;-69
2023/06/19 03:03:12;;;;;;;11.07;6.60;;;19.20;51.80;;;;;;5053373;28;20036;-70
2023/06/19 03:05:40;;;;;;;8.55;6.32;;;19.20;52.00;;;;;;5053522;28;20021;-72
2023/06/19 03:08:06;;;;;;;9.70;6.13;;;19.20;52.20;;;;;;5035298;28;20082;-69
2023/06/19 03:10:37;;;;;;;7.93;6.18;;;19.20;52.20;;;;;;5053230;28;20027;-69
2023/06/19 03:13:05;;;;;;;8.00;6.07;;;19.20;52.10;;;;;;5051848;28;20029;-69
2023/06/19 03:15:31;;;;;;;9.05;5.93;;;19.20;52.30;;;;;;5035411;28;20068;-69
2023/06/19 03:17:57;;;;;;;8.20;6.43;;;19.20;52.30;;;;;;5053294;28;20053;-69
2023/06/19 03:20:28;;;;;;;9.85;6.05;;;19.20;52.50;;;;;;5053148;28;20491;-70
2023/06/19 03:22:53;;;;;;;8.10;6.32;;;19.20;52.50;;;;;;5052985;28;20511;-69
2023/06/19 03:25:19;;;;;;;8.75;6.20;;;19.20;52.90;;;;;;5021433;28;20053;-71
2023/06/19 03:27:45;;;;;;;8.82;6.65;;;19.20;53.70;;;;;;5033052;28;20063;-69
2023/06/19 03:30:13;;;;;;;10.63;6.45;;;19.20;53.10;;;;;;5032819;28;20022;-70
2023/06/19 03:32:39;;;;;;;11.77;6.63;;;19.20;54.10;;;;;;5032934;28;20021;-71
2023/06/19 03:35:07;;;;;;;11.13;7.18;;;19.20;53.80;;;;;;5032954;28;20080;-70
2023/06/19 03:38:06;;;;;;;7.70;6.20;;;19.20;54.40;;;;;;5015223;28;20116;-70
2023/06/19 03:44:41;;;;;;;8.55;6.53;;;19.20;53.70;;;;;;5032690;28;20132;-71
2023/06/19 03:48:03;;;;;;;11.35;6.90;;;19.20;53.80;;;;;;5032816;28;20034;-71
2023/06/19 03:51:12;;;;;;;8.60;6.15;;;19.30;53.80;;;;;;5032518;28;20087;-71
2023/06/19 03:54:38;;;;;;;11.80;6.07;;;19.30;53.50;;;;;;5034721;28;20039;-70
2023/06/19 04:04:46;;;;;;;7.25;5.80;;;19.50;53.50;;;;;;5053035;28;20490;-70
2023/06/19 04:07:51;;;;;;;7.88;6.00;;;19.50;53.50;;;;;;5052318;28;20032;-70
2023/06/19 04:11:18;;;;;;;7.70;6.15;;;19.70;53.50;;;;;;5052278;28;20051;-71
2023/06/19 04:14:40;;;;;;;7.97;5.95;;;19.70;53.40;;;;;;5051797;28;20039;-72
2023/06/19 04:18:02;;;;;;;7.68;5.50;;;19.80;53.40;;;;;;5038389;28;20052;-71
2023/06/19 04:21:20;;;;;;;8.90;6.07;;;19.90;53.50;;;;;;5051831;28;20391;-70
2023/06/19 04:28:04;;;;;;;7.45;5.95;;;20.10;53.00;;;;;;5042139;28;20385;-71
2023/06/19 04:31:17;;;;;;;7.18;5.57;;;20.20;52.90;;;;;;5045046;28;20037;-71
2023/06/19 04:34:39;;;;;;;8.90;6.28;;;20.30;53.00;;;;;;5049537;28;20045;-70
2023/06/19 04:37:30;;;;;;;9.95;5.82;;;20.40;52.80;;;;;;5032480;28;20037;-71
2023/06/19 04:41:01;;;;;;;9.07;6.40;;;20.60;53.00;;;;;;5050469;28;20048;-70
2023/06/19 04:44:33;;;;;;;8.68;5.90;;;20.70;53.50;;;;;;5045666;28;20391;-70
2023/06/19 04:48:13;;;;;;;8.32;6.10;;;20.80;52.50;;;;;;5048912;28;20033;-70
2023/06/19 04:51:42;;;;;;;6.72;5.78;;;21.00;52.10;;;;;;4967670;28;20031;-70
2023/06/19 04:54:08;;;;;;;6.95;5.65;;;21.10;51.60;;;;;;5050499;28;20499;-70
2023/06/19 04:56:52;;;;;;;9.07;6.03;;;21.30;51.10;;;;;;5049514;28;20021;-70
2023/06/19 04:59:18;;;;;;;;;;;21.40;50.80;;;;;;5050076;28;20411;-69
2023/06/19 05:01:44;;;;;;;8.68;6.10;;;21.50;50.80;;;;;;5048401;28;19915;-69
2023/06/19 05:04:15;;;;;;;7.47;5.90;;;21.50;50.90;;;;;;5050540;28;20048;-69
2023/06/19 05:06:44;;;;;;;7.35;5.82;;;21.60;50.90;;;;;;5033195;28;20028;-67
2023/06/19 05:09:10;;;;;;;14.38;6.45;;;21.70;50.20;;;;;;5049734;28;20067;-69
2023/06/19 05:11:39;;;;;;;9.85;6.35;;;21.70;50.30;;;;;;5053794;28;20025;-69
2023/06/19 05:14:11;;;;;;;9.40;6.68;;;21.80;50.40;;;;;;5053974;28;20465;-70
2023/06/19 05:16:41;;;;;;;11.40;6.63;;;21.90;50.30;;;;;;5055230;28;20022;-69
2023/06/19 05:19:15;;;;;;;12.02;6.57;;;22.00;50.30;;;;;;5055352;28;20029;-69
2023/06/19 05:21:41;;;;;;;13.48;6.47;;;22.20;50.40;;;;;;5037394;28;20041;-70
2023/06/19 05:24:14;;;;;;;10.23;6.32;;;22.30;50.20;;;;;;5055375;28;20330;-69
2023/06/19 05:26:44;;;;;;;12.53;6.40;;;22.40;50.00;;;;;;5037222;28;20381;-69
2023/06/19 05:29:15;;;;;;;8.70;6.22;;;22.50;49.80;;;;;;5055127;28;20738;-69
2023/06/19 05:31:41;;;;;;;16.17;6.40;;;22.60;49.70;;;;;;5037260;28;20021;-69
2023/06/19 05:34:08;;;;;;;12.77;7.18;;;22.70;49.60;;;;;;5037316;28;20028;-69
2023/06/19 05:36:47;;;;;;;12.95;6.03;;;22.70;49.50;;;;;;5055207;28;20032;-69
2023/06/19 05:39:20;;;;;;;8.48;6.32;;;22.80;49.60;;;;;;5054965;28;20098;-69
2023/06/19 05:41:59;;;;;;;13.30;6.53;;;22.80;49.30;;;;;;5055018;28;20025;-69
2023/06/19 05:44:28;;;;;;;11.75;6.15;;;22.80;49.10;;;;;;5054803;28;20036;-69
2023/06/19 05:46:56;;;;;;;12.50;6.47;;;22.90;49.00;;;;;;5054818;28;20033;-69
2023/06/19 05:49:24;;;;;;;9.70;7.03;;;22.90;49.00;;;;;;5036803;28;20036;-70
2023/06/19 05:52:13;;;;;;;7.07;5.85;;;23.00;48.90;;;;;;5036765;28;20036;-70
2023/06/19 05:54:44;;;;;;;9.70;6.60;;;23.10;49.00;;;;;;5036642;28;20339;-72
2023/06/19 05:57:20;;;;;;;13.35;7.03;;;23.20;49.10;;;;;;5052802;28;20036;-73
2023/06/19 05:59:57;;;;;;;10.02;6.93;;;23.20;48.80;;;;;;5054554;28;20021;-72
2023/06/19 06:02:28;;;;;;;13.55;7.82;;;23.30;48.80;;;;;;5054696;28;20112;-70
2023/06/19 06:05:00;;;;;;;12.80;6.97;;;23.50;48.80;;;;;;5036870;28;20025;-70
2023/06/19 06:07:28;;;;;;;9.55;7.38;;;23.70;48.80;;;;;;5054416;28;20029;-71
2023/06/19 06:10:02;;;;;;;12.38;7.57;;;23.90;48.60;;;;;;5054497;28;20136;-71
2023/06/19 06:12:29;;;;;;;10.68;7.63;;;24.10;48.20;;;;;;5062950;28;20112;-70
2023/06/19 06:15:07;;;;;;;13.63;8.60;;;24.20;47.70;;;;;;5072339;28;20430;-70
2023/06/19 06:17:33;;;;;;;10.57;7.47;;;24.40;47.10;;;;;;5050972;28;20025;-71
2023/06/19 06:19:58;;;;;;;16.65;10.63;;;24.50;47.00;;;;;;5052886;28;20047;-70
2023/06/19 06:22:30;;;;;;;16.30;11.38;;;24.60;46.50;;;;;;5054584;28;20036;-70
2023/06/19 06:25:00;;;;;;;13.88;8.90;;;24.70;46.30;;;;;;5054240;28;20036;-73
2023/06/19 06:27:28;;;;;;;16.83;10.75;;;24.80;46.70;;;;;;5054626;28;20025;-75
2023/06/19 06:29:53;;;;;;;22.92;12.80;;;25.00;46.30;;;;;;5054861;28;20067;-74
2023/06/19 06:32:27;;;;;;;26.75;14.98;;;25.10;44.80;;;;;;5054853;28;20025;-74
2023/06/19 06:34:56;;;;;;;21.70;14.07;;;25.20;44.20;;;;;;5053701;28;20025;-75
2023/06/19 06:37:27;;;;;;;20.52;13.10;;;25.30;44.70;;;;;;5054955;28;20068;-74
2023/06/19 06:39:59;;;;;;;20.63;13.88;;;25.60;44.70;;;;;;5052727;28;20033;-76
2023/06/19 06:42:24;;;;;;;18.27;12.00;;;25.80;44.70;;;;;;5054382;28;20028;-75
2023/06/19 06:44:55;;;;;;;26.92;15.48;;;26.00;44.90;;;;;;5054283;28;20029;-75
2023/06/19 06:47:24;;;;;;;19.58;13.00;;;26.20;44.40;;;;;;5054260;28;20480;-75
2023/06/19 06:49:50;;;;;;;31.17;14.95;;;26.50;44.10;;;;;;5054479;28;20125;-74
2023/06/19 06:52:27;;;;;;;18.50;12.30;;;26.60;43.20;;;;;;5054287;28;20032;-73
2023/06/19 06:54:55;;;;;;;16.70;11.55;;;26.70;42.30;;;;;;5036691;28;20116;-76
2023/06/19 06:57:23;;;;;;;14.85;10.30;;;26.90;42.00;;;;;;5054019;28;20025;-74
2023/06/19 06:59:52;;;;;;;14.00;10.57;;;27.00;41.20;;;;;;5054241;28;20025;-74
2023/06/19 07:02:23;;;;;;;14.13;10.00;;;27.10;40.70;;;;;;5053973;28;20450;-73
2023/06/19 07:04:49;;;;;;;13.93;9.57;;;27.20;40.60;;;;;;5054238;28;20028;-74
2023/06/19 07:07:17;;;;;;;12.38;9.00;;;27.20;40.50;;;;;;5053376;28;20393;-74
2023/06/19 07:09:43;;;;;;;11.45;7.85;;;27.30;40.30;;;;;;5053189;28;20025;-77
2023/06/19 07:12:09;;;;;;;12.30;8.70;;;27.40;39.80;;;;;;5054132;28;20452;-74
2023/06/19 07:14:38;;;;;;;12.57;9.32;;;27.40;39.60;;;;;;5053980;28;20021;-74
2023/06/19 07:17:06;;;;;;;14.63;9.63;;;27.50;39.10;;;;;;5036094;28;20029;-75
2023/06/19 07:19:34;;;;;;;18.77;10.93;;;27.50;39.00;;;;;;5053853;28;20056;-75
2023/06/19 07:22:03;;;;;;;14.57;10.43;;;27.50;39.80;;;;;;5053992;28;20041;-75
2023/06/19 07:24:31;;;;;;;16.65;9.23;;;27.50;39.50;;;;;;5035702;28;20025;-74
2023/06/19 07:26:57;;;;;;;18.75;10.73;;;27.50;39.70;;;;;;5035916;28;20587;-74
2023/06/19 07:29:23;;;;;;;14.93;9.93;;;27.50;40.20;;;;;;5053444;28;20036;-74
2023/06/19 07:31:48;;;;;;;13.90;9.73;;;27.40;40.10;;;;;;5053723;28;20040;-75
2023/06/19 07:34:16;;;;;;;15.05;8.55;;;27.30;40.20;;;;;;5053646;28;20028;-76
2023/06/19 07:36:42;;;;;;;12.63;9.15;;;27.30;40.50;;;;;;5053253;28;20391;-77
2023/06/19 07:39:10;;;;;;;18.05;8.68;;;27.20;40.70;;;;;;5052828;28;20107;-79
2023/06/19 07:41:36;;;;;;;14.00;8.43;;;27.10;40.90;;;;;;5053007;28;20029;-75
2023/06/19 07:44:05;;;;;;;18.05;9.52;;;27.10;41.30;;;;;;5053513;28;20100;-77
2023/06/19 07:46:31;;;;;;;13.13;8.20;;;27.00;41.60;;;;;;5053611;28;20025;-76
2023/06/19 07:48:56;;;;;;;14.82;9.13;;;27.00;42.00;;;;;;5052533;28;20486;-74
2023/06/19 07:51:24;;;;;;;18.83;9.77;;;27.10;42.30;;;;;;5053448;28;20024;-75
2023/06/19 07:53:53;;;;;;;16.80;9.75;;;27.10;42.30;;;;;;5052913;28;20021;-75
2023/06/19 07:56:21;;;;;;;15.75;9.82;;;27.20;42.50;;;;;;5051107;28;20114;-76
2023/06/19 07:58:50;;;;;;;16.77;8.68;;;27.20;42.60;;;;;;5034934;28;20032;-76
2023/06/19 08:01:18;;;;;;;14.32;8.18;;;27.20;42.60;;;;;;5035034;28;20476;-75
2023/06/19 08:03:49;;;;;;;22.80;8.52;;;27.20;42.60;;;;;;5052885;28;20029;-76
2023/06/19 08:06:23;;;;;;;12.98;9.05;;;27.30;42.50;;;;;;5053166;28;20025;-76
2023/06/19 08:08:53;;;;;;;12.98;8.70;;;27.30;41.80;;;;;;5035298;28;20033;-75
2023/06/19 08:11:19;;;;;;;14.57;9.25;;;27.40;42.00;;;;;;5052729;28;20052;-76
2023/06/19 08:13:47;;;;;;;23.27;9.60;;;27.40;42.20;;;;;;5034957;28;20482;-76
2023/06/19 08:16:17;;;;;;;16.83;9.63;;;27.50;42.00;;;;;;5035347;28;20029;-77
2023/06/19 08:18:46;;;;;;;16.92;9.15;;;27.50;42.00;;;;;;5034751;28;20086;-75
2023/06/19 08:21:16;;;;;;;17.77;9.30;;;27.60;42.10;;;;;;5047749;28;20527;-75
2023/06/19 08:23:44;;;;;;;14.40;9.32;;;27.60;42.10;;;;;;5052312;28;20029;-75
2023/06/19 08:26:10;;;;;;;23.45;9.63;;;27.70;42.10;;;;;;5052733;28;20132;-74
2023/06/19 08:28:37;;;;;;;27.30;9.07;;;27.80;42.00;;;;;;5035011;28;20112;-76
2023/06/19 08:31:03;;;;;;;16.92;9.18;;;27.90;41.90;;;;;;5032835;28;20036;-75
2023/06/19 08:33:36;;;;;;;15.40;9.20;;;28.00;41.70;;;;;;5032650;28;20025;-75
2023/06/19 08:36:02;;;;;;;16.17;8.25;;;28.20;41.60;;;;;;5031747;28;20025;-75
2023/06/19 08:38:28;;;;;;;17.73;10.20;;;28.20;41.50;;;;;;5015368;28;20048;-76
2023/06/19 08:40:56;;;;;;;14.40;9.20;;;28.40;41.40;;;;;;5032494;28;20449;-77
2023/06/19 08:43:23;;;;;;;17.20;9.13;;;28.50;41.20;;;;;;5032035;28;20465;-75
2023/06/19 08:46:17;;;;;;;14.20;9.00;;;28.60;40.90;;;;;;5015062;28;20468;-75
2023/06/19 08:48:43;;;;;;;;;;;28.60;41.00;;;;;;5013706;28;20069;-75
2023/06/19 08:51:10;;;;;;;13.95;9.10;;;28.70;41.30;;;;;;5031182;28;20335;-75
2023/06/19 08:53:43;;;;;;;14.88;9.80;;;28.80;40.40;;;;;;5047986;28;20029;-75
2023/06/19 08:56:12;;;;;;;16.10;9.38;;;28.80;40.20;;;;;;5014826;28;20036;-76
2023/06/19 08:58:38;;;;;;;15.50;9.13;;;28.70;40.00;;;;;;5014629;28;20091;-76
2023/06/19 09:01:04;;;;;;;15.60;9.70;;;28.70;40.00;;;;;;5032355;28;20038;-77
2023/06/19 09:03:31;;;;;;;15.13;9.82;;;28.70;39.80;;;;;;5047923;28;20448;-75
2023/06/19 09:06:08;;;;;;;15.88;10.95;;;28.60;39.70;;;;;;5032319;28;20380;-76
2023/06/19 09:08:34;;;;;;;16.15;10.30;;;28.60;39.20;;;;;;5014957;28;20029;-76
2023/06/19 09:11:04;;;;;;;14.63;9.20;;;28.60;39.40;;;;;;5015137;28;20033;-76
2023/06/19 09:13:31;;;;;;;15.48;8.80;;;28.60;40.00;;;;;;5032179;28;20575;-75
2023/06/19 09:16:07;;;;;;;15.80;9.63;;;28.50;39.30;;;;;;5032375;28;20061;-75
2023/06/19 09:18:46;;;;;;;13.70;9.40;;;28.60;39.30;;;;;;5014881;28;20038;-75
2023/06/19 09:21:19;;;;;;;14.85;10.02;;;28.60;39.60;;;;;;5031997;28;20095;-77
2023/06/19 09:23:49;;;;;;;18.17;9.50;;;28.60;39.40;;;;;;5031078;28;20021;-76
2023/06/19 09:26:16;;;;;;;16.73;9.85;;;28.70;39.50;;;;;;5014461;28;20326;-74
2023/06/19 09:28:45;;;;;;;14.05;8.05;;;28.70;39.30;;;;;;5031753;28;20460;-75
2023/06/19 09:31:12;;;;;;;14.95;9.85;;;28.80;40.00;;;;;;5014250;28;20033;-75
2023/06/19 09:33:38;;;;;;;20.75;10.20;;;28.80;39.40;;;;;;5031986;28;20021;-75
2023/06/19 09:36:10;;;;;;;17.60;11.00;;;28.90;39.30;;;;;;5014478;28;20029;-76
2023/06/19 09:38:40;;;;;;;22.23;9.05;;;29.00;39.30;;;;;;5032117;28;20025;-75
2023/06/19 09:41:09;;;;;;;15.13;8.55;;;29.10;39.40;;;;;;5042029;28;20480;-74
2023/06/19 09:43:42;;;;;;;17.98;10.48;;;29.30;39.80;;;;;;5034273;28;20140;-75
2023/06/19 09:46:11;;;;;;;15.15;9.35;;;29.40;38.70;;;;;;5052088;28;20029;-74
2023/06/19 09:48:46;;;;;;;16.00;10.05;;;29.60;38.80;;;;;;5051742;28;20029;-75
2023/06/19 09:51:23;;;;;;;13.82;9.15;;;29.70;38.50;;;;;;5052018;28;20028;-75
2023/06/19 09:53:49;;;;;;;14.52;9.27;;;29.90;38.40;;;;;;5033987;28;20106;-74
2023/06/19 09:56:25;;;;;;;14.73;9.43;;;30.00;38.30;;;;;;5036669;28;20057;-76
2023/06/19 09:58:54;;;;;;;16.00;9.68;;;30.10;38.00;;;;;;5055438;28;20029;-76
2023/06/19 10:01:20;;;;;;;12.02;9.32;;;30.20;37.70;;;;;;5055538;28;20021;-75
2023/06/19 10:03:52;;;;;;;16.63;10.63;;;30.30;37.60;;;;;;5037463;28;20029;-75
2023/06/19 10:06:19;;;;;;;14.20;9.45;;;30.30;37.30;;;;;;5055415;28;20033;-76
2023/06/19 10:08:48;;;;;;;18.80;10.02;;;30.30;37.20;;;;;;5037495;28;20033;-76
2023/06/19 10:11:16;;;;;;;13.90;9.15;;;30.30;36.80;;;;;;5037357;28;20512;-75
2023/06/19 10:13:45;;;;;;;12.77;9.68;;;30.30;37.00;;;;;;5037702;28;20033;-76
2023/06/19 10:16:24;;;;;;;14.10;9.27;;;30.30;37.00;;;;;;5037374;28;20384;-75
2023/06/19 10:18:50;;;;;;;12.93;8.60;;;30.30;37.10;;;;;;5055346;28;20021;-75
2023/06/19 10:21:19;;;;;;;13.00;8.25;;;30.30;37.00;;;;;;5036775;28;20049;-75
2023/06/19 10:24:11;;;;;;;13.30;8.43;;;30.30;36.70;;;;;;5055035;28;20044;-75
2023/06/19 10:26:37;;;;;;;12.02;8.27;;;30.30;37.00;;;;;;5054669;28;20025;-74
2023/06/19 10:29:17;;;;;;;15.02;8.35;;;30.30;36.70;;;;;;5054918;28;20025;-75
2023/06/19 10:31:49;;;;;;;10.45;8.00;;;30.40;36.60;;;;;;5037019;28;20124;-75
2023/06/19 10:34:20;;;;;;;9.05;7.32;;;30.40;36.60;;;;;;5054619;28;20176;-74
2023/06/19 10:36:52;;;;;;;12.77;8.82;;;30.40;36.50;;;;;;5054656;28;20108;-75
2023/06/19 10:39:21;;;;;;;9.45;8.23;;;30.40;36.70;;;;;;5054670;28;20028;-77
2023/06/19 10:41:46;;;;;;;15.20;8.05;;;30.50;36.60;;;;;;5054706;28;20055;-76
2023/06/19 10:44:15;;;;;;;14.63;8.25;;;30.50;36.60;;;;;;5036184;28;20037;-75
2023/06/19 10:46:41;;;;;;;9.98;7.45;;;30.50;36.60;;;;;;5054294;28;20036;-75
2023/06/19 10:49:10;;;;;;;13.05;8.00;;;30.50;36.80;;;;;;5036488;28;20542;-75
2023/06/19 10:51:37;;;;;;;10.90;8.00;;;30.60;36.90;;;;;;5054369;28;20021;-75
2023/06/19 10:54:03;;;;;;;12.05;9.23;;;30.60;36.80;;;;;;5054021;28;20189;-75
2023/06/19 10:56:32;;;;;;;9.30;7.72;;;30.70;36.90;;;;;;5054167;28;20041;-75
2023/06/19 10:59:09;;;;;;;12.65;7.72;;;30.70;36.70;;;;;;5036066;28;20391;-75
2023/06/19 11:01:40;;;;;;;11.00;7.95;;;30.80;36.60;;;;;;5054078;28;20380;-77
2023/06/19 11:04:13;;;;;;;11.70;7.97;;;30.90;36.40;;;;;;5054325;28;20021;-75
2023/06/19 11:06:40;;;;;;;12.50;8.25;;;30.90;36.10;;;;;;5036215;28;20032;-76
2023/06/19 11:09:07;;;;;;;11.07;8.13;;;31.00;35.90;;;;;;5054686;28;20028;-75
2023/06/19 11:11:41;;;;;;;11.23;7.75;;;31.10;35.70;;;;;;5053802;28;20426;-75
2023/06/19 11:14:09;;;;;;;9.52;7.18;;;31.20;35.30;;;;;;5053732;28;20029;-74
2023/06/19 11:16:37;;;;;;;8.82;7.68;;;31.30;34.30;;;;;;5054025;28;20036;-75
2023/06/19 11:19:06;;;;;;;10.25;7.03;;;31.30;34.40;;;;;;5036503;28;20029;-77
2023/06/19 11:21:34;;;;;;;13.18;7.70;;;31.40;34.30;;;;;;5054471;28;20072;-75
2023/06/19 11:24:24;;;;;;;9.48;7.07;;;31.50;35.40;;;;;;5054228;28;20063;-75
2023/06/19 11:26:50;;;;;;;9.20;7.50;;;31.50;34.70;;;;;;5054080;28;20028;-76
2023/06/19 11:29:28;;;;;;;10.02;7.57;;;31.60;33.80;;;;;;5019175;28;20392;-76
2023/06/19 11:32:12;;;;;;;11.88;7.75;;;31.70;34.40;;;;;;5033737;28;20056;-76
2023/06/19 11:34:43;;;;;;;14.15;7.85;;;31.80;34.80;;;;;;5033825;28;20163;-76
2023/06/19 11:37:17;;;;;;;12.77;7.10;;;31.80;34.30;;;;;;5034606;28;20032;-75
2023/06/19 11:39:47;;;;;;;7.93;6.90;;;31.90;33.80;;;;;;5053565;28;20070;-76
2023/06/19 11:42:14;;;;;;;13.00;7.40;;;32.00;33.80;;;;;;5053393;28;20032;-77
2023/06/19 11:45:07;;;;;;;8.98;7.07;;;32.00;33.00;;;;;;5052420;28;20447;-75
2023/06/19 11:47:34;;;;;;;8.70;7.30;;;32.10;33.00;;;;;;5053584;28;20415;-75
2023/06/19 11:50:00;;;;;;;8.68;7.15;;;32.00;32.60;;;;;;5035470;28;20033;-77
2023/06/19 11:52:26;;;;;;;8.65;7.38;;;32.10;32.20;;;;;;5053107;28;20489;-76
2023/06/19 11:54:52;;;;;;;7.65;6.80;;;32.00;31.30;;;;;;5052245;28;20036;-76
2023/06/19 11:57:20;;;;;;;9.75;6.72;;;32.00;31.30;;;;;;5053285;28;20021;-77
2023/06/19 11:59:49;;;;;;;6.35;5.55;;;32.00;30.30;;;;;;5053032;28;20104;-76
2023/06/19 12:02:20;;;;;;;8.80;6.75;;;31.90;29.90;;;;;;5051930;28;20132;-75
2023/06/19 12:04:49;;;;;;;8.68;6.57;;;31.80;29.50;;;;;;5053329;28;20044;-75
2023/06/19 12:07:17;;;;;;;9.00;6.40;;;31.80;29.40;;;;;;5052195;28;20053;-75
2023/06/19 12:09:43;;;;;;;9.77;6.55;;;31.80;29.80;;;;;;5053137;28;20037;-76
2023/06/19 12:12:09;;;;;;;6.45;5.82;;;31.80;29.50;;;;;;5053369;28;20570;-76
2023/06/19 12:14:35;;;;;;;7.05;6.30;;;31.80;30.00;;;;;;5053114;28;20082;-76
2023/06/19 12:17:06;;;;;;;7.88;6.30;;;31.80;30.00;;;;;;5052739;28;20033;-77
2023/06/19 12:19:35;;;;;;;9.02;6.63;;;31.80;30.00;;;;;;5052644;28;20039;-77
2023/06/19 12:22:03;;;;;;;9.90;5.97;;;31.80;30.00;;;;;;5051422;28;20045;-76
2023/06/19 12:24:29;;;;;;;8.07;6.57;;;31.80;29.90;;;;;;5053362;28;20029;-77
2023/06/19 12:26:55;;;;;;;11.80;6.28;;;31.80;29.80;;;;;;5053019;28;20021;-76
2023/06/19 12:29:26;;;;;;;8.00;6.15;;;31.80;29.60;;;;;;5051676;28;20029;-76
2023/06/19 12:31:52;;;;;;;10.38;6.25;;;31.80;29.70;;;;;;5033026;28;20100;-76
2023/06/19 12:34:20;;;;;;;9.52;5.53;;;31.90;29.70;;;;;;5033173;28;20450;-77
2023/06/19 12:36:49;;;;;;;7.32;5.65;;;31.90;29.50;;;;;;5042285;28;20078;-76
2023/06/19 12:39:17;;;;;;;8.43;6.68;;;31.90;29.70;;;;;;5052409;28;20032;-77
2023/06/19 12:41:43;;;;;;;7.93;6.20;;;31.90;29.80;;;;;;5052942;28;20036;-76
2023/06/19 12:44:09;;;;;;;7.47;5.88;;;32.00;29.70;;;;;;5052793;28;20025;-76
2023/06/19 12:46:35;;;;;;;9.80;6.25;;;32.00;29.60;;;;;;5053090;28;20052;-77
2023/06/19 12:49:03;;;;;;;6.95;5.40;;;32.10;29.70;;;;;;5052681;28;20468;-77
2023/06/19 12:51:31;;;;;;;7.57;5.78;;;32.10;29.60;;;;;;5052773;28;20029;-77
2023/06/19 12:53:59;;;;;;;7.43;5.80;;;32.20;29.40;;;;;;5052831;28;20063;-76
2023/06/19 12:56:28;;;;;;;6.35;5.35;;;32.30;29.00;;;;;;5034728;28;20025;-77
2023/06/19 12:58:56;;;;;;;8.18;5.63;;;32.30;28.90;;;;;;5034609;28;20036;-76
2023/06/19 13:01:25;;;;;;;7.97;5.72;;;32.40;28.40;;;;;;5034812;28;20369;-75
2023/06/19 13:03:51;;;;;;;6.53;5.85;;;32.30;28.00;;;;;;5052586;28;20605;-78
2023/06/19 13:06:22;;;;;;;5.65;5.05;;;32.40;28.30;;;;;;5052647;28;20051;-77
2023/06/19 13:08:50;;;;;;;6.28;5.13;;;32.40;27.60;;;;;;5052561;28;20040;-76
2023/06/19 13:11:16;;;;;;;7.68;5.03;;;32.40;26.90;;;;;;5052505;28;20091;-75
2023/06/19 13:13:42;;;;;;;6.43;5.20;;;32.40;27.40;;;;;;5051838;28;20384;-74
2023/06/19 13:16:10;;;;;;;7.43;5.43;;;32.40;27.30;;;;;;5034399;28;20112;-75
2023/06/19 13:18:36;;;;;;;5.70;5.20;;;32.40;27.30;;;;;;5052619;28;20483;-77
2023/06/19 13:21:02;;;;;;;7.78;5.00;;;32.50;27.40;;;;;;5052224;28;20041;-77
2023/06/19 13:23:31;;;;;;;6.63;5.38;;;32.60;27.50;;;;;;5052537;28;20048;-76
2023/06/19 13:25:57;;;;;;;5.82;5.18;;;32.60;27.20;;;;;;5052643;28;20105;-76
2023/06/19 13:28:26;;;;;;;9.00;5.53;;;32.80;27.20;;;;;;5052296;28;20025;-74